createdAt,value
2018-09-24T00:00:26.599Z,23.325195
2018-09-24T00:00:56.136Z,23.355408
2018-09-24T00:01:25.394Z,23.395691
2018-09-24T00:01:54.869Z,23.375549
2018-09-24T00:02:24.251Z,23.345337
2018-09-24T00:02:53.614Z,23.315125
2018-09-24T00:03:23.019Z,23.274841
2018-09-24T00:03:52.295Z,23.234558
2018-09-24T00:04:21.918Z,23.274841
2018-09-24T00:04:51.387Z,23.284912
2018-09-24T00:05:20.929Z,23.315125
2018-09-24T00:05:50.392Z,23.305054
2018-09-24T00:06:19.948Z,23.345337
2018-09-24T00:06:49.665Z,23.355408
2018-09-24T00:07:19.148Z,23.345337
2018-09-24T00:07:48.473Z,23.345337
2018-09-24T00:08:18.071Z,23.355408
2018-09-24T00:08:47.667Z,23.355408
2018-09-24T00:09:17.097Z,23.38562
2018-09-24T00:09:46.409Z,23.38562
2018-09-24T00:10:15.678Z,23.355408
2018-09-24T00:10:44.961Z,23.325195
2018-09-24T00:11:14.384Z,23.325195
2018-09-24T00:11:43.787Z,23.305054
2018-09-24T00:12:13.302Z,23.234558
2018-09-24T00:12:42.637Z,23.2547
2018-09-24T00:13:11.925Z,23.224487
2018-09-24T00:13:41.391Z,23.224487
2018-09-24T00:14:10.689Z,23.204346
2018-09-24T00:14:40.215Z,23.194275
2018-09-24T00:15:09.844Z,23.224487
2018-09-24T00:15:39.281Z,23.224487
2018-09-24T00:16:08.661Z,23.274841
2018-09-24T00:16:37.987Z,23.234558
2018-09-24T00:17:07.523Z,23.234558
2018-09-24T00:17:37.114Z,23.274841
2018-09-24T00:18:06.514Z,23.284912
2018-09-24T00:18:35.912Z,23.274841
2018-09-24T00:19:05.212Z,23.234558
2018-09-24T00:19:35.917Z,23.194275
2018-09-24T00:20:07.526Z,23.174133
2018-09-24T00:20:36.769Z,23.174133
2018-09-24T00:21:06.045Z,23.204346
2018-09-24T00:21:35.302Z,23.194275
2018-09-24T00:22:04.586Z,23.164062
2018-09-24T00:22:33.851Z,23.123779
2018-09-24T00:23:03.294Z,23.073425
2018-09-24T00:23:32.694Z,22.982788
2018-09-24T00:24:02.240Z,22.912292
2018-09-24T00:24:32.687Z,22.771301
2018-09-24T00:25:02.062Z,22.731018
2018-09-24T00:25:31.442Z,22.640381
2018-09-24T00:26:00.939Z,22.579956
2018-09-24T00:26:30.342Z,22.519531
2018-09-24T00:26:59.919Z,22.539673
2018-09-24T00:27:29.181Z,22.469177
2018-09-24T00:27:59.454Z,22.459106
2018-09-24T00:28:30.315Z,22.449036
2018-09-24T00:28:59.878Z,22.418823
2018-09-24T00:29:29.455Z,22.428894
2018-09-24T00:29:58.879Z,22.50946
2018-09-24T00:30:28.370Z,22.600098
2018-09-24T00:30:57.679Z,22.680664
2018-09-24T00:31:28.243Z,22.731018
2018-09-24T00:31:57.969Z,22.801514
2018-09-24T00:32:28.017Z,22.771301
2018-09-24T00:32:57.778Z,22.670593
2018-09-24T00:33:27.327Z,22.539673
2018-09-24T00:33:56.926Z,22.428894
2018-09-24T00:34:26.193Z,22.267761
2018-09-24T00:34:55.498Z,22.167053
2018-09-24T00:35:24.940Z,22.116699
2018-09-24T00:35:54.215Z,22.136841
2018-09-24T00:36:23.670Z,22.197266
2018-09-24T00:36:53.621Z,22.146912
2018-09-24T00:37:23.199Z,22.096558
2018-09-24T00:37:53.001Z,22.136841
2018-09-24T00:38:22.329Z,22.197266
2018-09-24T00:38:51.611Z,22.297974
2018-09-24T00:39:21.540Z,22.398682
2018-09-24T00:39:51.054Z,22.50946
2018-09-24T00:40:20.438Z,22.610168
2018-09-24T00:40:49.847Z,22.650452
2018-09-24T00:41:19.277Z,22.720947
2018-09-24T00:41:48.620Z,22.771301
2018-09-24T00:42:17.907Z,22.851868
2018-09-24T00:42:47.266Z,22.912292
2018-09-24T00:43:16.642Z,22.952576
2018-09-24T00:43:45.986Z,22.982788
2018-09-24T00:44:15.262Z,23.023071
2018-09-24T00:44:44.527Z,23.053284
2018-09-24T00:45:13.837Z,23.043213
2018-09-24T00:45:43.180Z,23.073425
2018-09-24T00:46:12.438Z,23.103638
2018-09-24T00:46:41.711Z,23.103638
2018-09-24T00:47:11.982Z,23.103638
2018-09-24T00:47:42.296Z,23.103638
2018-09-24T00:48:11.557Z,23.13385
2018-09-24T00:48:40.931Z,23.174133
2018-09-24T00:49:10.235Z,23.174133
2018-09-24T00:49:39.516Z,23.123779
2018-09-24T00:50:08.804Z,23.00293
2018-09-24T00:50:38.074Z,23.013
2018-09-24T00:51:07.334Z,23.023071
2018-09-24T00:51:37.589Z,23.174133
2018-09-24T00:52:06.862Z,23.274841
2018-09-24T00:52:37.100Z,23.224487
2018-09-24T00:53:06.403Z,23.224487
2018-09-24T00:53:35.699Z,23.2547
2018-09-24T00:54:05.034Z,23.284912
2018-09-24T00:54:34.316Z,23.315125
2018-09-24T00:55:03.594Z,23.345337
2018-09-24T00:55:32.863Z,23.325195
2018-09-24T00:56:02.168Z,23.375549
2018-09-24T00:56:32.451Z,23.38562
2018-09-24T00:57:01.704Z,23.38562
2018-09-24T00:57:31.012Z,23.355408
2018-09-24T00:58:00.278Z,23.325195
2018-09-24T00:58:29.600Z,23.284912
2018-09-24T00:58:58.927Z,23.274841
2018-09-24T00:59:28.233Z,23.284912
2018-09-24T00:59:58.544Z,23.153992
2018-09-24T01:00:27.868Z,23.234558
2018-09-24T01:00:57.203Z,23.204346
2018-09-24T01:01:26.484Z,23.224487
2018-09-24T01:01:55.787Z,23.174133
2018-09-24T01:02:25.053Z,23.164062
2018-09-24T01:02:54.318Z,23.103638
2018-09-24T01:03:23.597Z,23.093567
2018-09-24T01:03:52.906Z,23.093567
2018-09-24T01:04:22.216Z,22.982788
2018-09-24T01:04:51.507Z,22.821655
2018-09-24T01:05:20.822Z,22.680664
2018-09-24T01:05:50.154Z,22.600098
2018-09-24T01:06:19.441Z,22.519531
2018-09-24T01:06:48.758Z,22.398682
2018-09-24T01:07:18.042Z,22.328186
2018-09-24T01:07:47.345Z,22.267761
2018-09-24T01:08:16.658Z,22.24762
2018-09-24T01:08:45.982Z,22.217407
2018-09-24T01:09:15.343Z,22.237549
2018-09-24T01:09:45.616Z,22.308044
2018-09-24T01:10:15.952Z,22.358398
2018-09-24T01:10:45.300Z,22.398682
2018-09-24T01:11:14.585Z,22.469177
2018-09-24T01:11:43.891Z,22.459106
2018-09-24T01:12:13.208Z,22.489319
2018-09-24T01:12:42.521Z,22.579956
2018-09-24T01:13:11.824Z,22.650452
2018-09-24T01:13:41.137Z,22.720947
2018-09-24T01:14:10.450Z,22.801514
2018-09-24T01:14:39.880Z,22.791443
2018-09-24T01:15:09.214Z,22.771301
2018-09-24T01:15:38.565Z,22.75116
2018-09-24T01:16:07.985Z,22.76123
2018-09-24T01:16:37.295Z,22.731018
2018-09-24T01:17:06.609Z,22.76123
2018-09-24T01:17:35.885Z,22.801514
2018-09-24T01:18:05.197Z,22.861938
2018-09-24T01:18:34.507Z,22.902222
2018-09-24T01:19:03.759Z,22.942505
2018-09-24T01:19:33.075Z,22.902222
2018-09-24T01:20:02.390Z,22.670593
2018-09-24T01:20:31.680Z,22.549744
2018-09-24T01:21:00.984Z,22.569885
2018-09-24T01:21:30.268Z,22.600098
2018-09-24T01:21:59.605Z,22.600098
2018-09-24T01:22:28.938Z,22.600098
2018-09-24T01:22:58.250Z,22.569885
2018-09-24T01:23:27.583Z,22.610168
2018-09-24T01:23:56.882Z,22.670593
2018-09-24T01:24:26.231Z,22.720947
2018-09-24T01:24:55.578Z,22.76123
2018-09-24T01:25:24.936Z,22.821655
2018-09-24T01:25:54.230Z,22.831726
2018-09-24T01:26:23.493Z,22.861938
2018-09-24T01:26:52.774Z,22.851868
2018-09-24T01:27:22.069Z,22.831726
2018-09-24T01:27:51.389Z,22.861938
2018-09-24T01:28:20.737Z,22.851868
2018-09-24T01:28:50.027Z,22.902222
2018-09-24T01:29:19.338Z,22.922363
2018-09-24T01:29:49.745Z,22.942505
2018-09-24T01:30:19.066Z,23.00293
2018-09-24T01:30:48.399Z,23.00293
2018-09-24T01:31:18.703Z,22.972717
2018-09-24T01:31:48.055Z,23.013
2018-09-24T01:32:17.356Z,23.053284
2018-09-24T01:32:46.709Z,23.103638
2018-09-24T01:33:16.021Z,23.13385
2018-09-24T01:33:45.356Z,23.13385
2018-09-24T01:34:14.684Z,23.123779
2018-09-24T01:34:43.983Z,23.153992
2018-09-24T01:35:13.348Z,23.153992
2018-09-24T01:35:42.645Z,23.13385
2018-09-24T01:36:11.991Z,23.164062
2018-09-24T01:36:41.304Z,23.123779
2018-09-24T01:37:10.622Z,23.023071
2018-09-24T01:37:39.930Z,22.952576
2018-09-24T01:38:09.283Z,22.922363
2018-09-24T01:38:38.572Z,22.912292
2018-09-24T01:39:07.942Z,22.922363
2018-09-24T01:39:37.267Z,22.952576
2018-09-24T01:40:06.604Z,22.982788
2018-09-24T01:40:35.887Z,23.013
2018-09-24T01:41:05.251Z,23.043213
2018-09-24T01:41:34.557Z,23.053284
2018-09-24T01:42:03.833Z,23.043213
2018-09-24T01:42:33.099Z,22.982788
2018-09-24T01:43:02.354Z,22.88208
2018-09-24T01:43:31.615Z,22.831726
2018-09-24T01:44:00.889Z,22.831726
2018-09-24T01:44:30.142Z,22.88208
2018-09-24T01:44:59.399Z,22.902222
2018-09-24T01:45:28.725Z,22.851868
2018-09-24T01:45:57.996Z,22.75116
2018-09-24T01:46:27.248Z,22.700806
2018-09-24T01:46:56.509Z,22.640381
2018-09-24T01:47:25.769Z,22.700806
2018-09-24T01:47:55.055Z,22.720947
2018-09-24T01:48:24.312Z,22.670593
2018-09-24T01:48:53.558Z,22.610168
2018-09-24T01:49:22.824Z,22.610168
2018-09-24T01:49:52.075Z,22.620239
2018-09-24T01:50:21.382Z,22.539673
2018-09-24T01:50:50.646Z,22.267761
2018-09-24T01:51:19.921Z,22.096558
2018-09-24T01:51:49.171Z,21.99585
2018-09-24T01:52:18.435Z,21.955566
2018-09-24T01:52:47.730Z,22.026062
2018-09-24T01:53:17.008Z,22.066345
2018-09-24T01:53:46.273Z,22.167053
2018-09-24T01:54:15.527Z,22.24762
2018-09-24T01:54:45.793Z,22.328186
2018-09-24T01:55:15.067Z,22.398682
2018-09-24T01:55:45.373Z,22.459106
2018-09-24T01:56:14.642Z,22.50946
2018-09-24T01:56:43.897Z,22.519531
2018-09-24T01:57:13.167Z,22.519531
2018-09-24T01:57:42.423Z,22.569885
2018-09-24T01:58:11.716Z,22.600098
2018-09-24T01:58:40.967Z,22.610168
2018-09-24T01:59:10.246Z,22.640381
2018-09-24T01:59:39.515Z,22.620239
2018-09-24T02:00:08.801Z,22.650452
2018-09-24T02:00:38.096Z,22.670593
2018-09-24T02:01:07.363Z,22.600098
2018-09-24T02:01:36.623Z,22.297974
2018-09-24T02:02:05.877Z,22.167053
2018-09-24T02:02:35.151Z,22.136841
2018-09-24T02:03:04.437Z,22.066345
2018-09-24T02:03:33.728Z,21.915283
2018-09-24T02:04:03.982Z,21.844788
2018-09-24T02:04:33.237Z,21.75415
2018-09-24T02:05:02.521Z,21.74408
2018-09-24T02:05:31.776Z,21.794434
2018-09-24T02:06:01.084Z,21.794434
2018-09-24T02:06:30.334Z,21.864929
2018-09-24T02:06:59.583Z,21.864929
2018-09-24T02:07:28.858Z,21.864929
2018-09-24T02:07:58.102Z,21.713867
2018-09-24T02:08:27.378Z,21.613159
2018-09-24T02:08:56.644Z,21.50238
2018-09-24T02:09:25.912Z,21.49231
2018-09-24T02:09:55.218Z,21.582947
2018-09-24T02:10:24.490Z,21.542664
2018-09-24T02:10:53.794Z,21.582947
2018-09-24T02:11:23.092Z,21.582947
2018-09-24T02:11:52.324Z,21.653442
2018-09-24T02:12:21.623Z,21.683655
2018-09-24T02:12:50.902Z,21.683655
2018-09-24T02:13:20.164Z,21.683655
2018-09-24T02:13:49.434Z,21.562805
2018-09-24T02:14:18.713Z,21.522522
2018-09-24T02:14:47.974Z,21.472168
2018-09-24T02:15:17.246Z,21.431885
2018-09-24T02:15:46.529Z,21.431885
2018-09-24T02:16:15.849Z,21.431885
2018-09-24T02:16:45.112Z,21.401672
2018-09-24T02:17:14.376Z,21.381531
2018-09-24T02:17:43.651Z,21.401672
2018-09-24T02:18:12.907Z,21.421814
2018-09-24T02:18:42.247Z,21.441956
2018-09-24T02:19:11.544Z,21.532593
2018-09-24T02:19:40.848Z,21.643372
2018-09-24T02:20:10.129Z,21.723938
2018-09-24T02:20:39.396Z,21.824646
2018-09-24T02:21:08.744Z,21.895142
2018-09-24T02:21:38.021Z,21.985779
2018-09-24T02:22:07.292Z,22.015991
2018-09-24T02:22:36.591Z,22.026062
2018-09-24T02:23:05.877Z,22.026062
2018-09-24T02:23:35.167Z,22.026062
2018-09-24T02:24:04.534Z,22.056274
2018-09-24T02:24:33.783Z,21.864929
2018-09-24T02:25:03.059Z,21.683655
2018-09-24T02:25:32.325Z,21.613159
2018-09-24T02:26:01.595Z,21.50238
2018-09-24T02:26:30.924Z,21.472168
2018-09-24T02:27:00.180Z,21.401672
2018-09-24T02:27:29.458Z,21.311035
2018-09-24T02:27:58.715Z,21.280823
2018-09-24T02:28:27.986Z,21.220398
2018-09-24T02:28:57.267Z,21.24054
2018-09-24T02:29:26.526Z,21.220398
2018-09-24T02:29:55.786Z,21.170044
2018-09-24T02:30:25.061Z,21.159973
2018-09-24T02:30:54.336Z,21.170044
2018-09-24T02:31:23.676Z,21.159973
2018-09-24T02:31:52.945Z,21.25061
2018-09-24T02:32:22.224Z,21.351318
2018-09-24T02:32:52.471Z,21.341248
2018-09-24T02:33:21.746Z,21.280823
2018-09-24T02:33:51.056Z,21.210327
2018-09-24T02:34:20.335Z,21.159973
2018-09-24T02:34:49.611Z,21.11969
2018-09-24T02:35:18.928Z,21.089478
2018-09-24T02:35:48.227Z,21.059265
2018-09-24T02:36:17.495Z,21.069336
2018-09-24T02:36:47.816Z,21.069336
2018-09-24T02:37:17.078Z,21.059265
2018-09-24T02:37:46.351Z,21.069336
2018-09-24T02:38:16.592Z,21.139832
2018-09-24T02:38:45.838Z,21.280823
2018-09-24T02:39:15.124Z,21.351318
2018-09-24T02:39:44.404Z,21.441956
2018-09-24T02:40:13.686Z,21.532593
2018-09-24T02:40:42.967Z,21.542664
2018-09-24T02:41:12.233Z,21.542664
2018-09-24T02:41:41.538Z,21.542664
2018-09-24T02:42:11.842Z,21.562805
2018-09-24T02:42:41.133Z,21.532593
2018-09-24T02:43:10.395Z,21.532593
2018-09-24T02:43:39.678Z,21.542664
2018-09-24T02:44:09.582Z,21.593018
2018-09-24T02:44:38.869Z,21.673584
2018-09-24T02:45:08.136Z,21.723938
2018-09-24T02:45:37.397Z,21.794434
2018-09-24T02:46:06.665Z,21.804504
2018-09-24T02:46:35.910Z,21.804504
2018-09-24T02:47:05.235Z,21.875
2018-09-24T02:47:34.499Z,21.895142
2018-09-24T02:48:03.793Z,21.895142
2018-09-24T02:48:33.071Z,21.794434
2018-09-24T02:49:02.328Z,21.74408
2018-09-24T02:49:32.579Z,21.693726
2018-09-24T02:50:01.822Z,21.562805
2018-09-24T02:50:31.100Z,21.441956
2018-09-24T02:51:00.358Z,21.37146
2018-09-24T02:51:29.622Z,21.351318
2018-09-24T02:51:58.933Z,21.37146
2018-09-24T02:52:28.199Z,21.311035
2018-09-24T02:52:57.472Z,21.290894
2018-09-24T02:53:26.747Z,21.341248
2018-09-24T02:53:56.007Z,21.311035
2018-09-24T02:54:25.301Z,21.321106
2018-09-24T02:54:54.572Z,21.351318
2018-09-24T02:55:23.847Z,21.37146
2018-09-24T02:55:53.091Z,21.401672
2018-09-24T02:56:23.347Z,21.441956
2018-09-24T02:56:52.619Z,21.522522
2018-09-24T02:57:21.954Z,21.613159
2018-09-24T02:57:51.261Z,21.683655
2018-09-24T02:58:20.519Z,21.75415
2018-09-24T02:58:49.804Z,21.824646
2018-09-24T02:59:19.080Z,21.875
2018-09-24T02:59:48.374Z,21.915283
2018-09-24T03:00:17.628Z,21.975708
2018-09-24T03:00:46.926Z,22.026062
2018-09-24T03:01:16.297Z,22.066345
2018-09-24T03:01:45.496Z,22.136841
2018-09-24T03:02:14.834Z,22.177124
2018-09-24T03:02:44.085Z,22.207336
2018-09-24T03:03:13.373Z,22.197266
2018-09-24T03:03:43.667Z,22.217407
2018-09-24T03:04:12.977Z,22.24762
2018-09-24T03:04:42.250Z,22.237549
2018-09-24T03:05:11.546Z,22.24762
2018-09-24T03:05:40.831Z,22.267761
2018-09-24T03:06:10.090Z,22.308044
2018-09-24T03:06:39.364Z,22.297974
2018-09-24T03:07:08.640Z,22.308044
2018-09-24T03:07:38.022Z,22.328186
2018-09-24T03:08:07.267Z,22.328186
2018-09-24T03:08:36.563Z,22.348328
2018-09-24T03:09:05.818Z,22.348328
2018-09-24T03:09:35.165Z,22.348328
2018-09-24T03:10:04.441Z,22.348328
2018-09-24T03:10:33.700Z,22.368469
2018-09-24T03:11:02.964Z,22.368469
2018-09-24T03:11:32.230Z,22.328186
2018-09-24T03:12:01.549Z,22.328186
2018-09-24T03:12:30.929Z,22.348328
2018-09-24T03:13:00.220Z,22.328186
2018-09-24T03:13:29.509Z,22.328186
2018-09-24T03:13:58.767Z,22.368469
2018-09-24T03:14:28.044Z,22.398682
2018-09-24T03:14:57.308Z,22.418823
2018-09-24T03:15:26.577Z,22.428894
2018-09-24T03:15:55.860Z,22.428894
2018-09-24T03:16:25.158Z,22.418823
2018-09-24T03:16:54.423Z,22.368469
2018-09-24T03:17:23.714Z,22.328186
2018-09-24T03:17:53.026Z,22.177124
2018-09-24T03:18:22.290Z,22.096558
2018-09-24T03:18:51.573Z,22.026062
2018-09-24T03:19:20.874Z,22.046204
2018-09-24T03:19:50.150Z,21.975708
2018-09-24T03:20:19.409Z,21.975708
2018-09-24T03:20:48.708Z,21.955566
2018-09-24T03:21:17.984Z,21.985779
2018-09-24T03:21:47.260Z,22.046204
2018-09-24T03:22:16.546Z,22.066345
2018-09-24T03:22:45.868Z,22.026062
2018-09-24T03:23:15.179Z,22.046204
2018-09-24T03:23:44.480Z,22.015991
2018-09-24T03:24:13.778Z,22.015991
2018-09-24T03:24:43.065Z,22.056274
2018-09-24T03:25:12.355Z,22.096558
2018-09-24T03:25:41.621Z,22.136841
2018-09-24T03:26:11.901Z,22.167053
2018-09-24T03:26:41.185Z,22.217407
2018-09-24T03:27:10.474Z,22.237549
2018-09-24T03:27:39.756Z,22.267761
2018-09-24T03:28:09.134Z,22.277832
2018-09-24T03:28:38.406Z,22.328186
2018-09-24T03:29:07.697Z,22.358398
2018-09-24T03:29:37.014Z,22.388611
2018-09-24T03:30:06.308Z,22.428894
2018-09-24T03:30:35.614Z,22.449036
2018-09-24T03:31:04.912Z,22.449036
2018-09-24T03:31:34.189Z,22.459106
2018-09-24T03:32:03.541Z,22.469177
2018-09-24T03:32:32.795Z,22.428894
2018-09-24T03:33:02.135Z,22.398682
2018-09-24T03:33:31.394Z,22.328186
2018-09-24T03:34:00.687Z,22.328186
2018-09-24T03:34:30.006Z,22.348328
2018-09-24T03:34:59.272Z,22.277832
2018-09-24T03:35:28.648Z,22.267761
2018-09-24T03:35:57.961Z,22.177124
2018-09-24T03:36:27.214Z,22.066345
2018-09-24T03:36:56.501Z,21.935425
2018-09-24T03:37:25.772Z,21.905212
2018-09-24T03:37:55.100Z,21.895142
2018-09-24T03:38:24.452Z,21.935425
2018-09-24T03:38:53.709Z,21.985779
2018-09-24T03:39:23.012Z,21.985779
2018-09-24T03:39:52.295Z,21.975708
2018-09-24T03:40:22.601Z,21.905212
2018-09-24T03:40:51.989Z,21.794434
2018-09-24T03:41:21.322Z,21.834717
2018-09-24T03:41:50.590Z,21.875
2018-09-24T03:42:19.801Z,21.905212
2018-09-24T03:42:49.108Z,21.915283
2018-09-24T03:43:18.491Z,21.975708
2018-09-24T03:43:47.803Z,21.985779
2018-09-24T03:44:17.091Z,21.975708
2018-09-24T03:44:46.412Z,21.975708
2018-09-24T03:45:15.686Z,21.975708
2018-09-24T03:45:44.941Z,21.975708
2018-09-24T03:46:14.269Z,21.895142
2018-09-24T03:46:43.551Z,21.834717
2018-09-24T03:47:12.848Z,21.804504
2018-09-24T03:47:42.195Z,21.75415
2018-09-24T03:48:12.467Z,21.74408
2018-09-24T03:48:41.853Z,21.794434
2018-09-24T03:49:11.136Z,21.895142
2018-09-24T03:49:40.412Z,21.985779
2018-09-24T03:50:09.697Z,22.197266
2018-09-24T03:50:38.999Z,22.237549
2018-09-24T03:51:08.298Z,22.237549
2018-09-24T03:51:37.573Z,22.136841
2018-09-24T03:52:06.857Z,22.015991
2018-09-24T03:52:36.111Z,21.975708
2018-09-24T03:53:05.404Z,21.985779
2018-09-24T03:53:34.744Z,22.026062
2018-09-24T03:54:04.073Z,22.026062
2018-09-24T03:54:33.383Z,21.915283
2018-09-24T03:55:02.652Z,22.046204
2018-09-24T03:55:31.990Z,22.026062
2018-09-24T03:56:01.254Z,22.046204
2018-09-24T03:56:30.550Z,22.026062
2018-09-24T03:56:59.838Z,22.167053
2018-09-24T03:57:29.110Z,22.277832
2018-09-24T03:57:58.397Z,22.398682
2018-09-24T03:58:27.686Z,22.418823
2018-09-24T03:58:57.070Z,22.388611
2018-09-24T03:59:26.332Z,22.368469
2018-09-24T03:59:55.650Z,22.297974
2018-09-24T04:00:24.942Z,22.267761
2018-09-24T04:00:54.237Z,22.24762
2018-09-24T04:01:24.539Z,22.207336
2018-09-24T04:01:53.855Z,22.217407
2018-09-24T04:02:23.155Z,22.046204
2018-09-24T04:02:52.461Z,21.864929
2018-09-24T04:03:21.751Z,21.834717
2018-09-24T04:03:51.093Z,21.844788
2018-09-24T04:04:20.411Z,21.74408
2018-09-24T04:04:49.704Z,21.75415
2018-09-24T04:05:18.978Z,21.804504
2018-09-24T04:05:48.256Z,21.804504
2018-09-24T04:06:17.549Z,21.723938
2018-09-24T04:06:46.861Z,21.62323
2018-09-24T04:07:16.128Z,21.582947
2018-09-24T04:07:45.411Z,21.593018
2018-09-24T04:08:14.688Z,21.582947
2018-09-24T04:08:43.958Z,21.582947
2018-09-24T04:09:13.277Z,21.613159
2018-09-24T04:09:42.616Z,21.582947
2018-09-24T04:10:11.868Z,21.562805
2018-09-24T04:10:41.104Z,21.613159
2018-09-24T04:11:10.370Z,21.613159
2018-09-24T04:11:39.651Z,21.683655
2018-09-24T04:12:08.909Z,21.74408
2018-09-24T04:12:38.191Z,21.824646
2018-09-24T04:13:07.494Z,21.875
2018-09-24T04:13:36.809Z,21.915283
2018-09-24T04:14:06.173Z,21.834717
2018-09-24T04:14:35.578Z,21.713867
2018-09-24T04:15:04.869Z,21.62323
2018-09-24T04:15:34.174Z,21.532593
2018-09-24T04:16:03.568Z,21.431885
2018-09-24T04:16:33.874Z,21.401672
2018-09-24T04:17:03.208Z,21.472168
2018-09-24T04:17:32.475Z,21.462097
2018-09-24T04:18:01.824Z,21.341248
2018-09-24T04:18:31.118Z,21.24054
2018-09-24T04:19:00.436Z,21.129761
2018-09-24T04:19:29.831Z,21.029053
2018-09-24T04:19:59.389Z,20.948486
2018-09-24T04:20:28.776Z,20.797424
2018-09-24T04:20:58.056Z,20.757141
2018-09-24T04:21:28.352Z,20.767212
2018-09-24T04:21:57.653Z,20.737
2018-09-24T04:22:26.921Z,20.767212
2018-09-24T04:22:56.176Z,20.817566
2018-09-24T04:23:25.486Z,20.908203
2018-09-24T04:23:54.784Z,20.98877
2018-09-24T04:24:24.131Z,21.069336
2018-09-24T04:24:53.451Z,21.159973
2018-09-24T04:25:22.705Z,21.190186
2018-09-24T04:25:51.987Z,21.24054
2018-09-24T04:26:21.322Z,21.311035
2018-09-24T04:26:51.520Z,21.381531
2018-09-24T04:27:20.814Z,21.421814
2018-09-24T04:27:50.102Z,21.381531
2018-09-24T04:28:19.366Z,21.290894
2018-09-24T04:28:48.655Z,21.311035
2018-09-24T04:29:17.920Z,21.341248
2018-09-24T04:29:47.258Z,21.401672
2018-09-24T04:30:16.526Z,21.421814
2018-09-24T04:30:45.794Z,21.50238
2018-09-24T04:31:15.060Z,21.562805
2018-09-24T04:31:44.321Z,21.593018
2018-09-24T04:32:13.613Z,21.50238
2018-09-24T04:32:42.880Z,21.401672
2018-09-24T04:33:12.187Z,21.381531
2018-09-24T04:33:41.484Z,21.431885
2018-09-24T04:34:10.757Z,21.441956
2018-09-24T04:34:40.078Z,21.401672
2018-09-24T04:35:09.370Z,21.401672
2018-09-24T04:35:38.691Z,21.37146
2018-09-24T04:36:08.966Z,21.381531
2018-09-24T04:36:38.238Z,21.401672
2018-09-24T04:37:07.536Z,21.462097
2018-09-24T04:37:36.825Z,21.522522
2018-09-24T04:38:06.114Z,21.49231
2018-09-24T04:38:35.392Z,21.401672
2018-09-24T04:39:04.699Z,21.311035
2018-09-24T04:39:34.054Z,21.311035
2018-09-24T04:40:03.309Z,21.280823
2018-09-24T04:40:32.593Z,21.280823
2018-09-24T04:41:01.881Z,21.099548
2018-09-24T04:41:31.175Z,21.039124
2018-09-24T04:42:00.451Z,21.029053
2018-09-24T04:42:29.733Z,21.039124
2018-09-24T04:42:59.989Z,20.968628
2018-09-24T04:43:29.256Z,20.908203
2018-09-24T04:43:58.532Z,20.888062
2018-09-24T04:44:28.785Z,20.908203
2018-09-24T04:44:58.111Z,20.948486
2018-09-24T04:45:27.377Z,21.039124
2018-09-24T04:45:56.656Z,21.139832
2018-09-24T04:46:25.982Z,21.210327
2018-09-24T04:46:55.275Z,21.311035
2018-09-24T04:47:24.542Z,21.351318
2018-09-24T04:47:53.839Z,21.462097
2018-09-24T04:48:23.113Z,21.542664
2018-09-24T04:48:52.424Z,21.613159
2018-09-24T04:49:21.693Z,21.62323
2018-09-24T04:49:52.010Z,21.643372
2018-09-24T04:50:21.389Z,21.673584
2018-09-24T04:50:50.645Z,21.673584
2018-09-24T04:51:19.981Z,21.593018
2018-09-24T04:51:49.362Z,21.522522
2018-09-24T04:52:18.731Z,21.472168
2018-09-24T04:52:48.072Z,21.441956
2018-09-24T04:53:18.355Z,21.37146
2018-09-24T04:53:47.717Z,21.311035
2018-09-24T04:54:17.135Z,21.139832
2018-09-24T04:54:46.401Z,20.948486
2018-09-24T04:55:15.771Z,20.888062
2018-09-24T04:55:45.069Z,20.888062
2018-09-24T04:56:15.384Z,20.787354
2018-09-24T04:56:45.666Z,20.737
2018-09-24T04:57:14.989Z,20.666504
2018-09-24T04:57:44.284Z,20.686646
2018-09-24T04:58:14.597Z,20.666504
2018-09-24T04:58:44.898Z,20.666504
2018-09-24T04:59:14.152Z,20.767212
2018-09-24T04:59:43.574Z,20.877991
2018-09-24T05:00:12.890Z,20.978699
2018-09-24T05:00:42.230Z,21.069336
2018-09-24T05:01:11.544Z,21.129761
2018-09-24T05:01:40.844Z,21.220398
2018-09-24T05:02:10.135Z,21.25061
2018-09-24T05:02:39.460Z,21.290894
2018-09-24T05:03:08.800Z,21.311035
2018-09-24T05:03:38.108Z,21.341248
2018-09-24T05:04:07.426Z,21.381531
2018-09-24T05:04:36.730Z,21.462097
2018-09-24T05:05:06.042Z,21.421814
2018-09-24T05:05:36.367Z,21.401672
2018-09-24T05:06:05.656Z,21.280823
2018-09-24T05:06:34.941Z,21.129761
2018-09-24T05:07:04.252Z,21.11969
2018-09-24T05:07:33.564Z,21.139832
2018-09-24T05:08:02.845Z,21.099548
2018-09-24T05:08:32.157Z,21.069336
2018-09-24T05:09:01.461Z,21.11969
2018-09-24T05:09:30.761Z,21.069336
2018-09-24T05:10:00.036Z,21.059265
2018-09-24T05:10:29.328Z,21.089478
2018-09-24T05:10:58.703Z,21.190186
2018-09-24T05:11:27.996Z,21.089478
2018-09-24T05:11:57.289Z,20.98877
2018-09-24T05:12:26.569Z,20.948486
2018-09-24T05:12:55.904Z,21.029053
2018-09-24T05:13:25.208Z,21.11969
2018-09-24T05:13:54.493Z,21.170044
2018-09-24T05:14:23.803Z,21.129761
2018-09-24T05:14:53.081Z,21.069336
2018-09-24T05:15:22.393Z,21.069336
2018-09-24T05:15:51.755Z,21.089478
2018-09-24T05:16:21.113Z,21.139832
2018-09-24T05:16:50.414Z,21.210327
2018-09-24T05:17:19.702Z,21.280823
2018-09-24T05:17:51.532Z,21.321106
2018-09-24T05:18:20.867Z,21.381531
2018-09-24T05:18:50.135Z,21.441956
2018-09-24T05:19:19.429Z,21.49231
2018-09-24T05:19:48.708Z,21.50238
2018-09-24T05:20:18.088Z,21.562805
2018-09-24T05:20:47.330Z,21.643372
2018-09-24T05:21:17.680Z,21.673584
2018-09-24T05:21:46.962Z,21.713867
2018-09-24T05:22:16.235Z,21.794434
2018-09-24T05:22:45.484Z,21.774292
2018-09-24T05:23:14.793Z,21.774292
2018-09-24T05:23:44.045Z,21.794434
2018-09-24T05:24:13.343Z,21.794434
2018-09-24T05:24:42.600Z,21.794434
2018-09-24T05:25:12.867Z,21.75415
2018-09-24T05:25:42.160Z,21.74408
2018-09-24T05:26:11.454Z,21.794434
2018-09-24T05:26:40.733Z,21.824646
2018-09-24T05:27:10.066Z,21.844788
2018-09-24T05:27:39.339Z,21.844788
2018-09-24T05:28:08.603Z,21.875
2018-09-24T05:28:37.877Z,21.875
2018-09-24T05:29:07.134Z,21.895142
2018-09-24T05:29:36.402Z,21.895142
2018-09-24T05:30:05.743Z,21.895142
2018-09-24T05:30:35.082Z,21.895142
2018-09-24T05:31:04.381Z,21.895142
2018-09-24T05:31:33.733Z,21.895142
2018-09-24T05:32:04.003Z,21.875
2018-09-24T05:32:33.281Z,21.875
2018-09-24T05:33:02.564Z,21.875
2018-09-24T05:33:31.839Z,21.915283
2018-09-24T05:34:01.155Z,21.955566
2018-09-24T05:34:30.488Z,21.774292
2018-09-24T05:34:59.673Z,21.532593
2018-09-24T05:35:28.970Z,21.401672
2018-09-24T05:35:58.219Z,21.190186
2018-09-24T05:36:27.549Z,21.008911
2018-09-24T05:36:56.844Z,20.978699